createdAt,value
2019-06-08T00:02:34.708Z,1.07
2019-06-08T00:07:39.104Z,0.88
2019-06-08T00:12:43.435Z,1.05
2019-06-08T00:17:47.892Z,1.27
2019-06-08T00:22:52.300Z,1.35
2019-06-08T00:27:56.606Z,1.37
2019-06-08T00:33:01.005Z,1.30
2019-06-08T00:38:05.337Z,0.88
2019-06-08T00:48:16.743Z,0.95
2019-06-08T00:53:27.384Z,1.32
2019-06-08T00:58:31.835Z,1.62
2019-06-08T01:03:36.290Z,1.30
2019-06-08T01:08:55.996Z,1.17
2019-06-08T01:14:00.584Z,1.12
2019-06-08T01:19:06.501Z,1.22
2019-06-08T01:24:10.881Z,1.00
2019-06-08T01:29:15.276Z,1.25
2019-06-08T01:34:20.568Z,1.42
2019-06-08T01:39:25.202Z,1.50
2019-06-08T01:44:30.040Z,1.25
2019-06-08T01:49:34.491Z,1.42
2019-06-08T01:54:39.071Z,1.75
2019-06-08T01:59:43.455Z,1.45
2019-06-08T02:04:50.438Z,1.60
2019-06-08T02:09:54.831Z,1.67
2019-06-08T02:14:59.139Z,1.45
2019-06-08T02:20:05.263Z,1.67
2019-06-08T02:25:09.992Z,1.60
2019-06-08T02:30:17.227Z,1.30
2019-06-08T02:35:21.674Z,1.55
2019-06-08T02:40:27.475Z,1.42
2019-06-08T02:45:34.059Z,1.70
2019-06-08T02:50:53.313Z,1.57
2019-06-08T02:55:57.700Z,1.57
2019-06-08T03:01:04.521Z,1.30
2019-06-08T03:06:08.812Z,1.35
2019-06-08T03:11:14.659Z,1.50
2019-06-08T03:16:19.069Z,1.75
2019-06-08T03:21:25.463Z,1.72
2019-06-08T03:26:29.850Z,1.73
2019-06-08T03:31:39.141Z,1.57
2019-06-08T03:36:53.564Z,1.30
2019-06-08T03:41:46.721Z,1.42
2019-06-08T03:46:51.206Z,1.52
2019-06-08T03:51:55.587Z,1.27
2019-06-08T03:57:00.007Z,1.60
2019-06-08T04:02:04.302Z,1.70
2019-06-08T04:07:08.679Z,1.30
2019-06-08T04:12:12.996Z,1.50
2019-06-08T04:17:17.639Z,1.35
2019-06-08T04:22:22.035Z,1.62
2019-06-08T04:27:26.729Z,1.60
2019-06-08T04:32:31.361Z,1.65
2019-06-08T04:37:35.675Z,1.75
2019-06-08T04:42:41.646Z,1.82
2019-06-08T04:47:47.765Z,2.20
2019-06-08T04:52:52.161Z,1.90
2019-06-08T04:57:56.458Z,1.62
2019-06-08T05:03:00.848Z,1.67
2019-06-08T05:08:05.308Z,1.52
2019-06-08T05:13:09.925Z,1.70
2019-06-08T05:18:15.914Z,1.60
2019-06-08T05:23:20.221Z,1.60
2019-06-08T05:28:25.180Z,2.02
2019-06-08T05:33:29.826Z,1.42
2019-06-08T05:38:34.225Z,1.60
2019-06-08T05:43:39.664Z,1.57
2019-06-08T05:48:44.049Z,1.75
2019-06-08T05:53:52.125Z,1.47
2019-06-08T06:29:38.928Z,1.60
2019-06-08T06:59:47.146Z,2.60
2019-06-08T07:04:12.924Z,2.92
2019-06-08T07:09:17.233Z,1.95
2019-06-08T07:14:21.546Z,2.67
2019-06-08T07:19:25.983Z,2.08
2019-06-08T07:24:30.433Z,1.90
2019-06-08T07:29:34.757Z,2.12
2019-06-08T07:34:41.147Z,1.95
2019-06-08T07:39:45.408Z,2.20
2019-06-08T07:44:50.832Z,1.90
2019-06-08T07:50:06.218Z,2.02
2019-06-08T07:55:11.000Z,1.62
2019-06-08T08:00:15.723Z,1.40
2019-06-08T08:05:20.044Z,1.65
2019-06-08T08:10:25.083Z,1.90
2019-06-08T08:15:29.487Z,1.82
2019-06-08T08:20:33.791Z,1.65
2019-06-08T08:25:38.185Z,1.47
2019-06-08T08:30:42.585Z,1.77
2019-06-08T08:35:48.267Z,1.67
2019-06-08T08:40:54.657Z,1.20
2019-06-08T08:46:01.813Z,1.80
2019-06-08T08:51:08.385Z,1.32
2019-06-08T08:56:12.531Z,1.27
2019-06-08T09:01:20.243Z,1.70
2019-06-08T09:06:22.971Z,1.32
2019-06-08T09:11:28.850Z,1.70
2019-06-08T09:16:33.469Z,1.80
2019-06-08T09:21:38.452Z,1.70
2019-06-08T09:26:42.876Z,1.47
2019-06-08T09:31:49.075Z,1.80
2019-06-08T09:36:54.959Z,1.20
2019-06-08T09:42:01.916Z,1.50
2019-06-08T09:47:12.161Z,1.60
2019-06-08T09:52:12.330Z,1.40
2019-06-08T09:57:18.900Z,1.22
2019-06-08T10:02:23.042Z,1.70
2019-06-08T10:07:31.082Z,1.55
2019-06-08T10:12:33.663Z,1.12
2019-06-08T10:17:38.195Z,1.57
2019-06-08T10:22:42.589Z,1.45
2019-06-08T10:27:46.881Z,1.87
2019-06-08T10:32:51.355Z,1.75
2019-06-08T10:37:58.540Z,1.75
2019-06-08T10:43:03.408Z,1.82
2019-06-08T10:48:09.603Z,1.82
2019-06-08T10:53:16.646Z,2.00
2019-06-08T10:58:21.510Z,1.85
2019-06-08T11:03:30.434Z,1.55
2019-06-08T11:08:32.082Z,1.60
2019-06-08T11:13:36.390Z,1.87
2019-06-08T11:18:40.780Z,2.30
2019-06-08T11:23:48.842Z,2.58
2019-06-08T11:28:51.456Z,3.08
2019-06-08T11:33:58.486Z,4.22
2019-06-08T11:39:02.562Z,3.33
2019-06-08T11:44:11.845Z,4.17
2019-06-08T11:49:15.160Z,3.27
2019-06-08T11:54:32.716Z,3.58
2019-06-08T11:59:28.518Z,2.63
2019-06-08T12:04:33.166Z,2.75
2019-06-08T12:09:37.556Z,3.72
2019-06-08T12:14:41.943Z,4.67
2019-06-08T12:19:47.589Z,3.33
2019-06-08T12:24:52.110Z,2.42
2019-06-08T12:29:58.775Z,3.00
2019-06-08T12:35:02.615Z,2.52
2019-06-08T12:40:09.799Z,2.30
2019-06-08T12:45:13.470Z,2.20
2019-06-08T12:50:18.234Z,2.45
2019-06-08T12:55:25.266Z,1.60
2019-06-08T13:00:29.104Z,1.60
2019-06-08T13:05:33.484Z,2.20
2019-06-08T13:10:38.345Z,0.93
2019-06-08T13:15:42.851Z,0.90
2019-06-08T13:20:51.383Z,1.05
2019-06-08T13:25:53.304Z,1.23
2019-06-08T13:30:58.103Z,1.40
2019-06-08T13:36:02.595Z,1.50
2019-06-08T13:41:08.790Z,1.30
2019-06-08T13:46:13.700Z,1.00
2019-06-08T13:51:20.729Z,0.82
2019-06-08T13:56:24.148Z,0.90
2019-06-08T14:01:30.833Z,0.90
2019-06-08T14:06:34.881Z,1.00
2019-06-08T14:11:39.262Z,0.93
2019-06-08T14:16:43.656Z,0.80
2019-06-08T14:21:47.959Z,1.07
2019-06-08T14:26:52.271Z,0.93
2019-06-08T14:31:57.753Z,0.93
2019-06-08T14:37:02.349Z,0.73
2019-06-08T14:42:08.299Z,0.80
2019-06-08T14:47:15.289Z,0.80
2019-06-08T14:52:22.197Z,0.72
2019-06-08T14:57:28.218Z,0.62
2019-06-08T15:02:32.576Z,0.95
2019-06-08T15:07:38.865Z,0.70
2019-06-08T15:12:43.067Z,0.93
2019-06-08T15:17:47.802Z,0.93
2019-06-08T15:22:52.139Z,0.90
2019-06-08T15:28:00.660Z,1.17
2019-06-08T15:33:02.733Z,1.60
2019-06-08T15:38:08.387Z,1.10
2019-06-08T15:43:12.891Z,1.20
2019-06-08T15:48:20.245Z,1.20
2019-06-08T15:53:24.361Z,1.20
2019-06-08T15:58:29.935Z,1.30
2019-06-08T16:03:35.343Z,1.05
2019-06-08T16:08:39.703Z,1.27
2019-06-08T16:13:44.012Z,1.20
2019-06-08T16:18:48.321Z,1.42
2019-06-08T16:23:52.706Z,1.32
2019-06-08T16:28:57.317Z,1.37
2019-06-08T16:34:01.698Z,1.40
2019-06-08T16:39:08.729Z,1.35
2019-06-08T16:44:13.046Z,1.50
2019-06-08T16:49:17.447Z,1.30
2019-06-08T16:54:21.765Z,1.72
2019-06-08T16:59:26.146Z,1.35
2019-06-08T17:04:31.213Z,1.02
2019-06-08T17:09:35.967Z,1.22
2019-06-08T17:14:40.822Z,1.15
2019-06-08T17:19:45.145Z,0.85
2019-06-08T17:24:49.797Z,1.20
2019-06-08T17:29:54.105Z,1.10
2019-06-08T17:34:58.468Z,1.07
2019-06-08T17:40:02.778Z,0.85
2019-06-08T17:45:09.108Z,1.17
2019-06-08T17:50:16.425Z,0.90
2019-06-08T17:55:20.812Z,1.05
2019-06-08T18:00:25.288Z,1.22
2019-06-08T18:05:29.969Z,1.07
2019-06-08T18:10:34.435Z,1.02
2019-06-08T18:15:40.594Z,1.00
2019-06-08T18:20:45.026Z,1.20
2019-06-08T18:25:50.083Z,1.30
2019-06-08T18:30:54.490Z,1.37
2019-06-08T18:35:58.883Z,1.27
2019-06-08T18:41:03.195Z,1.30
2019-06-08T18:46:07.857Z,1.10
2019-06-08T18:51:13.702Z,1.15
2019-06-08T18:56:18.371Z,1.20
2019-06-08T19:01:23.885Z,1.40
2019-06-08T19:06:28.930Z,1.42
2019-06-08T19:11:33.321Z,1.45
2019-06-08T19:16:40.848Z,1.37
2019-06-08T19:21:44.910Z,1.37
2019-06-08T19:26:49.461Z,1.30
2019-06-08T19:31:53.779Z,1.30
2019-06-08T19:36:58.086Z,1.22
2019-06-08T19:42:02.408Z,1.20
2019-06-08T19:47:08.063Z,1.30
2019-06-08T19:52:12.493Z,1.12
2019-06-08T19:57:18.409Z,1.30
2019-06-08T20:02:22.798Z,1.40
2019-06-08T20:07:27.986Z,1.65
2019-06-08T20:12:32.402Z,1.50
2019-06-08T20:17:37.248Z,1.02
2019-06-08T20:22:41.884Z,1.00
2019-06-08T20:27:49.880Z,1.35
2019-06-08T20:32:54.254Z,1.50
2019-06-08T20:37:58.402Z,1.72
2019-06-08T20:43:02.799Z,1.85
2019-06-08T20:48:07.199Z,1.65
2019-06-08T20:53:11.582Z,1.62
2019-06-08T20:58:17.721Z,1.87
2019-06-08T21:03:22.214Z,1.32
2019-06-08T21:08:28.190Z,1.80
2019-06-08T21:13:32.650Z,1.98
2019-06-08T21:18:37.970Z,2.00
2019-06-08T21:23:42.505Z,1.30
2019-06-08T21:28:49.839Z,1.72
2019-06-08T21:33:54.533Z,1.60
2019-06-08T21:39:02.205Z,1.75
2019-06-08T21:44:05.180Z,2.35
2019-06-08T21:49:09.777Z,2.08
2019-06-08T21:54:14.145Z,2.22
2019-06-08T21:59:18.461Z,1.87
2019-06-08T22:04:22.843Z,2.05
2019-06-08T22:09:28.537Z,1.75
2019-06-08T22:14:32.934Z,1.92
2019-06-08T22:19:38.062Z,1.80
2019-06-08T22:24:42.581Z,2.65
2019-06-08T22:29:48.446Z,1.90
2019-06-08T22:34:53.177Z,2.12
2019-06-08T22:39:59.678Z,2.22
2019-06-08T22:45:08.279Z,2.30
2019-06-08T22:50:14.985Z,1.98
2019-06-08T22:55:19.399Z,2.57
2019-06-08T23:00:24.884Z,2.17
2019-06-08T23:05:29.829Z,2.30
2019-06-08T23:49:38.000Z,2.27
2019-06-08T23:54:42.483Z,2.75
2019-06-08T23:59:47.805Z,2.80
